createdAt,value
2017-12-05T00:00:40.323Z,8.18
2017-12-05T00:03:06.075Z,8.20
2017-12-05T00:05:31.877Z,8.20
2017-12-05T00:07:57.637Z,8.23
2017-12-05T00:10:23.399Z,8.19
2017-12-05T00:12:49.170Z,8.17
2017-12-05T00:15:14.919Z,8.17
2017-12-05T00:17:40.697Z,8.14
2017-12-05T00:20:06.451Z,8.14
2017-12-05T00:22:32.216Z,8.12
2017-12-05T00:24:57.972Z,8.14
2017-12-05T00:27:23.744Z,8.15
2017-12-05T00:29:49.511Z,8.18
2017-12-05T00:32:15.284Z,8.18
2017-12-05T00:34:41.049Z,8.13
2017-12-05T00:37:06.804Z,8.13
2017-12-05T00:39:32.580Z,8.20
2017-12-05T00:41:58.336Z,8.20
2017-12-05T00:44:24.103Z,8.17
2017-12-05T00:46:49.862Z,8.11
2017-12-05T00:49:15.635Z,8.12
2017-12-05T00:51:41.391Z,8.14
2017-12-05T00:54:07.155Z,8.11
2017-12-05T00:56:32.908Z,8.16
2017-12-05T00:58:58.671Z,8.10
2017-12-05T01:01:24.431Z,8.14
2017-12-05T01:03:50.212Z,8.14
2017-12-05T01:06:15.976Z,8.12
2017-12-05T01:08:41.744Z,8.12
2017-12-05T01:11:07.525Z,8.14
2017-12-05T01:13:33.275Z,8.11
2017-12-05T01:15:59.043Z,8.12
2017-12-05T01:18:24.795Z,8.11
2017-12-05T01:20:50.555Z,8.12
2017-12-05T01:23:16.319Z,8.18
2017-12-05T01:25:42.090Z,8.18
2017-12-05T01:28:07.844Z,8.16
2017-12-05T01:30:33.604Z,8.18
2017-12-05T01:32:59.372Z,8.14
2017-12-05T01:35:25.139Z,8.20
2017-12-05T01:37:50.903Z,8.20
2017-12-05T01:40:16.676Z,8.14
2017-12-05T01:42:42.431Z,8.15
2017-12-05T01:45:08.194Z,8.14
2017-12-05T01:47:33.964Z,8.13
2017-12-05T01:49:59.725Z,8.13
2017-12-05T01:52:25.475Z,8.15
2017-12-05T01:54:51.263Z,8.15
2017-12-05T01:57:17.019Z,8.16
2017-12-05T01:59:42.794Z,8.13
2017-12-05T02:02:08.551Z,8.13
2017-12-05T02:04:34.314Z,8.16
2017-12-05T02:07:00.076Z,8.11
2017-12-05T02:09:25.846Z,8.13
2017-12-05T02:11:51.616Z,8.15
2017-12-05T02:14:17.380Z,8.17
2017-12-05T02:16:43.153Z,8.16
2017-12-05T02:19:08.924Z,8.11
2017-12-05T02:21:34.697Z,8.15
2017-12-05T02:24:00.446Z,8.15
2017-12-05T02:26:26.196Z,8.15
2017-12-05T02:28:51.967Z,8.14
2017-12-05T02:31:17.714Z,8.21
2017-12-05T02:33:43.474Z,8.14
2017-12-05T02:36:09.273Z,8.14
2017-12-05T02:38:35.026Z,8.16
2017-12-05T02:41:09.009Z,8.13
2017-12-05T02:43:34.773Z,8.20
2017-12-05T02:46:00.544Z,8.15
2017-12-05T02:48:26.311Z,8.11
2017-12-05T02:50:52.065Z,8.14
2017-12-05T02:53:17.829Z,8.14
2017-12-05T02:55:43.599Z,8.20
2017-12-05T02:58:09.356Z,8.15
2017-12-05T03:00:35.113Z,8.16
2017-12-05T03:03:00.852Z,8.19
2017-12-05T03:05:26.622Z,8.19
2017-12-05T03:07:52.376Z,8.18
2017-12-05T03:10:18.139Z,8.21
2017-12-05T03:12:43.895Z,8.10
2017-12-05T03:15:09.664Z,8.10
2017-12-05T03:17:35.431Z,8.19
2017-12-05T03:20:01.201Z,8.11
2017-12-05T03:22:26.962Z,8.11
2017-12-05T03:24:52.723Z,8.08
2017-12-05T03:27:18.476Z,8.07
2017-12-05T03:29:44.253Z,8.12
2017-12-05T03:32:10.000Z,8.07
2017-12-05T03:34:35.764Z,8.05
2017-12-05T03:37:01.517Z,8.05
2017-12-05T03:39:27.282Z,8.05
2017-12-05T03:41:53.039Z,8.12
2017-12-05T03:44:18.797Z,8.09
2017-12-05T03:46:44.583Z,8.10
2017-12-05T03:49:10.346Z,8.09
2017-12-05T03:51:36.116Z,8.17
2017-12-05T03:54:01.885Z,8.16
2017-12-05T03:56:27.647Z,8.19
2017-12-05T03:58:53.402Z,8.17
2017-12-05T04:01:19.177Z,8.13
2017-12-05T04:03:44.930Z,8.16
2017-12-05T04:06:10.704Z,8.15
2017-12-05T04:08:36.455Z,8.15
2017-12-05T04:11:02.232Z,8.10
2017-12-05T04:13:27.984Z,8.13
2017-12-05T04:15:53.752Z,8.15
2017-12-05T04:18:19.505Z,8.09
2017-12-05T04:20:45.264Z,8.09
2017-12-05T04:23:11.032Z,8.12
2017-12-05T04:25:36.783Z,8.08
2017-12-05T04:28:02.565Z,8.11
2017-12-05T04:30:28.324Z,8.06
2017-12-05T04:32:54.103Z,8.07
2017-12-05T04:35:19.876Z,8.10
2017-12-05T04:37:45.669Z,8.09
2017-12-05T04:40:11.442Z,8.08
2017-12-05T04:42:37.219Z,8.05
2017-12-05T04:45:02.977Z,8.04
2017-12-05T04:47:28.773Z,8.02
2017-12-05T04:49:54.531Z,7.98
2017-12-05T04:52:20.343Z,8.03
2017-12-05T04:54:46.123Z,8.04
2017-12-05T04:57:11.903Z,8.03
2017-12-05T04:59:37.688Z,8.01
2017-12-05T05:02:03.471Z,8.00
2017-12-05T05:04:29.259Z,7.95
2017-12-05T05:06:55.034Z,8.00
2017-12-05T05:09:20.811Z,8.04
2017-12-05T05:11:46.571Z,7.98
2017-12-05T05:14:12.344Z,7.95
2017-12-05T05:16:38.112Z,7.98
2017-12-05T05:19:03.911Z,7.97
2017-12-05T05:21:29.679Z,8.00
2017-12-05T05:23:55.469Z,7.98
2017-12-05T05:26:21.232Z,8.00
2017-12-05T05:28:47.016Z,8.01
2017-12-05T05:31:12.779Z,8.05
2017-12-05T05:33:38.557Z,7.98
2017-12-05T05:36:04.323Z,8.10
2017-12-05T05:38:30.078Z,8.06
2017-12-05T05:40:55.867Z,8.11
2017-12-05T05:43:21.646Z,8.12
2017-12-05T05:45:47.424Z,8.09
2017-12-05T05:48:13.201Z,8.09
2017-12-05T05:50:38.964Z,8.12
2017-12-05T05:53:04.731Z,8.09
2017-12-05T05:55:30.502Z,8.08
2017-12-05T05:57:56.278Z,8.05
2017-12-05T06:00:22.053Z,8.03
2017-12-05T06:02:47.816Z,7.97
2017-12-05T06:05:13.578Z,8.02
2017-12-05T06:07:39.354Z,7.92
2017-12-05T06:10:05.119Z,7.95
2017-12-05T06:12:30.870Z,7.96
2017-12-05T06:14:56.640Z,8.02
2017-12-05T06:17:22.417Z,7.97
2017-12-05T06:19:48.184Z,7.99
2017-12-05T06:22:13.945Z,8.01
2017-12-05T06:24:39.739Z,7.98
2017-12-05T06:27:05.497Z,8.01
2017-12-05T06:29:31.251Z,8.03
2017-12-05T06:31:57.023Z,8.06
2017-12-05T06:34:22.793Z,7.99
2017-12-05T06:36:48.567Z,7.94
2017-12-05T06:39:14.315Z,8.02
2017-12-05T06:41:40.071Z,8.01
2017-12-05T06:44:05.828Z,7.92
2017-12-05T06:46:31.595Z,7.96
2017-12-05T06:48:57.360Z,7.99
2017-12-05T06:51:23.123Z,7.92
2017-12-05T06:53:48.887Z,7.91
2017-12-05T06:56:14.655Z,7.87
2017-12-05T06:58:40.416Z,7.84
2017-12-05T07:01:06.211Z,7.84
2017-12-05T07:03:31.980Z,7.88
2017-12-05T07:05:57.739Z,7.92
2017-12-05T07:08:23.506Z,7.86
2017-12-05T07:10:49.254Z,7.82
2017-12-05T07:13:15.014Z,7.85
2017-12-05T07:15:40.788Z,7.83
2017-12-05T07:18:06.551Z,7.83
2017-12-05T07:20:32.302Z,7.88
2017-12-05T07:22:58.084Z,7.91
2017-12-05T07:25:23.848Z,7.81
2017-12-05T07:27:55.692Z,7.87
2017-12-05T07:30:21.455Z,7.93
2017-12-05T07:32:47.231Z,7.84
2017-12-05T07:35:12.986Z,7.91
2017-12-05T07:37:38.776Z,7.83
2017-12-05T07:40:04.536Z,7.83
2017-12-05T07:42:30.311Z,7.91
2017-12-05T07:44:56.077Z,7.77
2017-12-05T07:47:21.866Z,7.76
2017-12-05T07:49:47.642Z,7.83
2017-12-05T07:52:13.436Z,7.76
2017-12-05T07:54:39.199Z,7.76
2017-12-05T07:57:04.971Z,7.83
2017-12-05T07:59:30.748Z,7.86
2017-12-05T08:01:56.557Z,7.77
2017-12-05T08:04:22.344Z,7.71
2017-12-05T08:06:48.119Z,7.77
2017-12-05T08:09:13.906Z,7.73
2017-12-05T08:11:39.689Z,7.74
2017-12-05T08:14:05.463Z,7.67
2017-12-05T08:16:31.242Z,7.62
2017-12-05T08:18:57.024Z,7.59
2017-12-05T08:21:22.816Z,7.72
2017-12-05T08:23:48.609Z,7.78
2017-12-05T08:26:14.368Z,7.74
2017-12-05T08:28:40.155Z,7.85
2017-12-05T08:31:06.123Z,7.84
2017-12-05T08:33:32.014Z,7.91
2017-12-05T08:35:57.797Z,7.93
2017-12-05T08:38:23.687Z,7.93
2017-12-05T08:40:49.468Z,7.97
2017-12-05T08:43:15.247Z,7.99
2017-12-05T08:45:41.088Z,7.96
2017-12-05T08:48:06.872Z,7.94
2017-12-05T08:50:32.680Z,8.04
2017-12-05T08:52:58.448Z,8.08
2017-12-05T08:55:24.215Z,8.18
2017-12-05T08:57:49.972Z,8.10
2017-12-05T09:00:15.763Z,8.12
2017-12-05T09:02:41.526Z,8.11
2017-12-05T09:05:07.325Z,8.20
2017-12-05T09:07:33.087Z,8.26
2017-12-05T09:09:58.863Z,8.12
2017-12-05T09:12:24.641Z,8.15
2017-12-05T09:14:50.422Z,8.09
2017-12-05T09:17:16.178Z,8.11
2017-12-05T09:19:41.955Z,8.08
2017-12-05T09:22:07.723Z,8.02
2017-12-05T09:24:33.488Z,8.03
2017-12-05T09:26:59.297Z,8.06
2017-12-05T09:29:25.079Z,8.07
2017-12-05T09:31:50.852Z,8.15
2017-12-05T09:34:16.616Z,8.17
2017-12-05T09:36:42.387Z,8.23
2017-12-05T09:39:08.143Z,8.30
2017-12-05T09:41:33.927Z,8.33
2017-12-05T09:43:59.696Z,8.41
2017-12-05T09:46:25.492Z,8.37
2017-12-05T09:48:51.251Z,8.39
2017-12-05T09:51:17.032Z,8.38
2017-12-05T09:53:42.808Z,8.50
2017-12-05T09:56:08.600Z,8.53
2017-12-05T09:58:34.376Z,8.55
2017-12-05T10:01:00.163Z,8.55
2017-12-05T10:03:25.937Z,8.54
2017-12-05T10:05:51.759Z,8.62
2017-12-05T10:08:17.527Z,8.64
2017-12-05T10:10:43.295Z,8.63
2017-12-05T10:13:09.075Z,8.67
2017-12-05T10:15:34.841Z,8.86
2017-12-05T10:18:00.627Z,9.00
2017-12-05T10:20:26.400Z,9.03
2017-12-05T10:22:52.191Z,9.07
2017-12-05T10:25:17.965Z,9.01
2017-12-05T10:27:43.732Z,8.95
2017-12-05T10:30:09.491Z,8.88
2017-12-05T10:32:35.276Z,8.83
2017-12-05T10:35:01.064Z,8.82
2017-12-05T10:37:26.841Z,8.84
2017-12-05T10:39:52.622Z,8.84
2017-12-05T10:42:18.379Z,8.83
2017-12-05T10:44:44.169Z,8.87
2017-12-05T10:47:09.950Z,8.96
2017-12-05T10:49:35.715Z,9.01
2017-12-05T10:52:01.489Z,9.04
2017-12-05T10:54:27.270Z,9.07
2017-12-05T10:56:53.080Z,9.02
2017-12-05T10:59:18.851Z,9.09
2017-12-05T11:01:44.624Z,9.09
2017-12-05T11:04:10.390Z,9.16
2017-12-05T11:06:36.145Z,9.10
2017-12-05T11:09:01.961Z,9.18
2017-12-05T11:11:27.744Z,9.14
2017-12-05T11:13:53.540Z,9.15
2017-12-05T11:16:19.315Z,9.14
2017-12-05T11:18:45.112Z,9.20
2017-12-05T11:21:10.896Z,9.19
2017-12-05T11:23:36.664Z,9.21
2017-12-05T11:26:02.455Z,9.28
2017-12-05T11:28:28.235Z,9.28
2017-12-05T11:30:54.033Z,9.27
2017-12-05T11:33:19.792Z,9.31
2017-12-05T11:35:45.572Z,9.42
2017-12-05T11:38:11.331Z,9.40
2017-12-05T11:40:37.116Z,9.39
2017-12-05T11:43:02.907Z,9.40
2017-12-05T11:45:28.692Z,9.40
2017-12-05T11:47:54.454Z,9.43
2017-12-05T11:50:20.215Z,9.43
2017-12-05T11:52:45.995Z,9.42
2017-12-05T11:55:11.760Z,9.45
2017-12-05T11:57:37.535Z,9.42
2017-12-05T12:00:03.359Z,9.45
2017-12-05T12:02:29.081Z,9.50
2017-12-05T12:04:54.841Z,9.49
2017-12-05T12:07:20.621Z,9.45
2017-12-05T12:09:46.377Z,9.41
2017-12-05T12:12:12.152Z,9.41
2017-12-05T12:14:37.916Z,9.41
2017-12-05T12:17:03.667Z,9.40
2017-12-05T12:19:29.546Z,9.36
2017-12-05T12:21:55.304Z,9.36
2017-12-05T12:24:21.071Z,9.34
2017-12-05T12:26:46.851Z,9.36
2017-12-05T12:29:12.610Z,9.30
2017-12-05T12:31:38.378Z,9.20
2017-12-05T12:34:04.139Z,9.18
2017-12-05T12:36:29.920Z,9.20
2017-12-05T12:38:55.678Z,9.22
2017-12-05T12:41:21.471Z,9.18
2017-12-05T12:43:47.228Z,9.20
2017-12-05T12:46:13.007Z,9.22
2017-12-05T12:48:38.763Z,9.18
2017-12-05T12:51:04.536Z,9.18
2017-12-05T12:53:30.296Z,9.23
2017-12-05T12:55:56.059Z,9.21
2017-12-05T12:58:21.849Z,9.17
2017-12-05T13:00:47.622Z,9.09
2017-12-05T13:03:13.390Z,9.09
2017-12-05T13:05:39.130Z,9.07
2017-12-05T13:08:04.904Z,9.10
2017-12-05T13:10:30.655Z,9.10
2017-12-05T13:12:56.429Z,9.11
2017-12-05T13:15:22.194Z,9.14
2017-12-05T13:17:47.964Z,9.16
2017-12-05T13:20:13.730Z,9.15
2017-12-05T13:22:39.539Z,9.16
2017-12-05T13:25:05.313Z,9.17
2017-12-05T13:27:31.087Z,9.16
2017-12-05T13:29:56.863Z,9.14
2017-12-05T13:32:22.628Z,9.17
2017-12-05T13:34:48.397Z,9.15
2017-12-05T13:37:14.201Z,9.15
2017-12-05T13:39:39.969Z,9.12
2017-12-05T13:42:05.741Z,9.16
2017-12-05T13:44:31.516Z,9.13
2017-12-05T13:46:57.274Z,9.12
2017-12-05T13:49:23.061Z,9.16
2017-12-05T13:51:48.837Z,9.15
2017-12-05T13:54:14.611Z,9.12
2017-12-05T13:56:40.395Z,9.11
2017-12-05T13:59:06.160Z,9.09
2017-12-05T14:01:31.911Z,9.06
2017-12-05T14:03:57.702Z,9.10
2017-12-05T14:06:23.467Z,9.09
2017-12-05T14:08:49.261Z,9.10
2017-12-05T14:11:15.049Z,9.10
2017-12-05T14:13:40.820Z,9.02
2017-12-05T14:16:06.644Z,9.02
2017-12-05T14:18:32.423Z,9.02
2017-12-05T14:20:58.208Z,8.96
2017-12-05T14:23:23.975Z,8.96
2017-12-05T14:25:49.739Z,8.99
2017-12-05T14:28:15.483Z,8.98
2017-12-05T14:30:41.269Z,8.98
2017-12-05T14:33:07.019Z,8.99
2017-12-05T14:35:32.799Z,8.95
2017-12-05T14:37:58.540Z,8.99
2017-12-05T14:40:24.312Z,8.95
2017-12-05T14:42:50.071Z,8.93
2017-12-05T14:45:15.844Z,8.90
2017-12-05T14:47:41.618Z,8.88
2017-12-05T14:50:07.382Z,8.82
2017-12-05T14:52:33.164Z,8.82
2017-12-05T14:54:58.921Z,8.83
2017-12-05T14:57:24.704Z,8.85
2017-12-05T14:59:50.468Z,8.85
2017-12-05T15:02:16.245Z,8.75
2017-12-05T15:04:42.004Z,8.78
2017-12-05T15:07:07.787Z,8.77
2017-12-05T15:09:33.547Z,8.77
2017-12-05T15:11:59.323Z,8.78
2017-12-05T15:14:25.092Z,8.74
2017-12-05T15:16:50.865Z,8.83
2017-12-05T15:19:16.628Z,8.76
2017-12-05T15:21:42.392Z,8.76
2017-12-05T15:24:08.169Z,8.75
2017-12-05T15:26:33.960Z,8.68
2017-12-05T15:28:59.709Z,8.77
2017-12-05T15:31:25.492Z,8.79
2017-12-05T15:33:51.288Z,8.78
2017-12-05T15:36:17.052Z,8.76
2017-12-05T15:38:42.842Z,8.77
2017-12-05T15:41:08.612Z,8.77
2017-12-05T15:43:34.388Z,8.80
2017-12-05T15:46:00.148Z,8.78
2017-12-05T15:48:25.939Z,8.77
2017-12-05T15:50:51.715Z,8.81
2017-12-05T15:53:17.487Z,8.81
2017-12-05T15:55:43.251Z,8.79
2017-12-05T15:58:09.023Z,8.82
2017-12-05T16:00:34.798Z,8.75
2017-12-05T16:03:00.571Z,8.80
2017-12-05T16:05:26.320Z,8.78
2017-12-05T16:07:52.096Z,8.68
2017-12-05T16:10:17.856Z,8.58
2017-12-05T16:12:43.639Z,8.56
2017-12-05T16:15:09.401Z,8.57
2017-12-05T16:17:35.211Z,8.93
2017-12-05T16:20:00.975Z,8.97
2017-12-05T16:22:26.751Z,8.93
2017-12-05T16:24:52.557Z,8.93
2017-12-05T16:27:18.376Z,8.79
2017-12-05T16:29:44.132Z,8.81
2017-12-05T16:32:09.903Z,8.96
2017-12-05T16:34:35.679Z,8.55
2017-12-05T16:37:01.443Z,8.54
2017-12-05T16:39:27.236Z,8.49
2017-12-05T16:41:53.004Z,8.52
2017-12-05T16:44:18.787Z,8.48
2017-12-05T16:46:44.550Z,8.51
2017-12-05T16:49:10.318Z,8.42
2017-12-05T16:51:36.067Z,8.45
2017-12-05T16:54:01.854Z,8.41
2017-12-05T16:56:27.620Z,8.46
2017-12-05T16:58:53.412Z,8.42
2017-12-05T17:01:19.179Z,8.46
2017-12-05T17:03:44.971Z,8.48
2017-12-05T17:06:10.738Z,8.49
2017-12-05T17:08:36.508Z,8.49
2017-12-05T17:11:02.284Z,8.52
2017-12-05T17:13:28.047Z,8.53
2017-12-05T17:15:53.809Z,8.52
2017-12-05T17:18:19.583Z,8.51
2017-12-05T17:20:45.359Z,8.52
2017-12-05T17:23:11.120Z,8.49
2017-12-05T17:25:36.921Z,8.49
2017-12-05T17:28:02.692Z,8.49
2017-12-05T17:30:28.476Z,8.51
2017-12-05T17:32:54.255Z,8.55
2017-12-05T17:35:20.041Z,8.53
2017-12-05T17:37:45.803Z,8.51
2017-12-05T17:40:11.571Z,8.50
2017-12-05T17:42:37.341Z,8.47
2017-12-05T17:45:03.119Z,8.75
2017-12-05T18:36:06.244Z,9.49
2017-12-05T18:38:32.016Z,8.84
2017-12-05T18:40:57.780Z,8.71
2017-12-05T18:43:23.564Z,8.57
2017-12-05T18:45:49.354Z,8.62
2017-12-05T18:48:15.129Z,8.59
2017-12-05T18:50:40.884Z,8.64
2017-12-05T18:53:06.673Z,8.71
2017-12-05T18:55:32.431Z,8.65
2017-12-05T18:57:58.240Z,8.54
2017-12-05T19:00:24.024Z,8.65
2017-12-05T19:02:49.800Z,8.65
2017-12-05T19:05:15.614Z,8.64
2017-12-05T19:07:41.393Z,8.54
2017-12-05T19:10:07.175Z,8.55
2017-12-05T19:12:32.973Z,8.51
2017-12-05T19:14:58.733Z,8.59
2017-12-05T19:17:24.507Z,8.58
2017-12-05T19:19:50.277Z,8.52
2017-12-05T19:22:16.064Z,8.56
2017-12-05T19:24:41.836Z,8.56
2017-12-05T19:27:07.622Z,8.57
2017-12-05T19:29:33.375Z,8.66
2017-12-05T19:31:59.139Z,8.62
2017-12-05T19:34:24.918Z,8.56
2017-12-05T19:36:50.675Z,8.58
2017-12-05T19:39:16.452Z,8.63
2017-12-05T19:41:42.232Z,8.56
2017-12-05T19:44:08.000Z,8.57
2017-12-05T19:46:33.766Z,8.62
2017-12-05T19:48:59.541Z,8.57
2017-12-05T19:51:25.305Z,8.56
2017-12-05T19:53:51.093Z,8.58
2017-12-05T19:56:16.877Z,8.62
2017-12-05T19:58:42.670Z,8.58
2017-12-05T20:01:08.436Z,8.58
2017-12-05T20:03:34.236Z,8.58
2017-12-05T20:06:00.005Z,8.55
2017-12-05T20:08:25.763Z,8.55
2017-12-05T20:10:51.535Z,8.53
2017-12-05T20:13:17.301Z,8.52
2017-12-05T20:15:43.080Z,8.52
2017-12-05T20:18:08.849Z,8.53
2017-12-05T20:20:34.611Z,8.52
2017-12-05T20:23:00.372Z,8.47
2017-12-05T20:25:26.161Z,8.48
2017-12-05T20:27:51.932Z,8.47
2017-12-05T20:30:17.700Z,8.44
2017-12-05T20:32:43.468Z,8.43
2017-12-05T20:35:09.604Z,8.45
2017-12-05T20:37:35.404Z,8.45
2017-12-05T20:40:01.195Z,8.39
2017-12-05T20:42:26.955Z,8.31
2017-12-05T20:44:52.895Z,8.27
2017-12-05T20:47:18.670Z,8.26
2017-12-05T20:49:44.436Z,8.20
2017-12-05T20:52:10.184Z,8.13
2017-12-05T20:54:35.941Z,8.06
2017-12-05T20:57:01.712Z,8.01
2017-12-05T20:59:27.476Z,8.02
2017-12-05T21:01:53.236Z,7.95
2017-12-05T21:04:18.991Z,7.99
2017-12-05T21:06:44.779Z,7.93
2017-12-05T21:09:10.531Z,7.89
2017-12-05T21:11:36.304Z,7.92
2017-12-05T21:14:02.074Z,7.94
2017-12-05T21:16:27.839Z,8.03
2017-12-05T21:18:53.601Z,7.98
2017-12-05T21:21:19.363Z,7.95
2017-12-05T21:23:45.111Z,7.92
2017-12-05T21:26:10.891Z,7.93
2017-12-05T21:28:36.631Z,7.96
2017-12-05T21:31:02.390Z,7.96
2017-12-05T21:33:28.159Z,7.99
2017-12-05T21:35:53.928Z,7.91
2017-12-05T21:38:19.684Z,7.93
2017-12-05T21:40:45.435Z,7.96
2017-12-05T21:43:11.201Z,7.94
2017-12-05T21:45:36.951Z,8.01
2017-12-05T21:48:02.727Z,7.94
2017-12-05T21:50:28.483Z,7.94
2017-12-05T21:52:54.255Z,7.92
2017-12-05T21:55:20.403Z,7.97
2017-12-05T21:57:46.715Z,7.87
2017-12-05T22:00:12.969Z,7.77
2017-12-05T22:02:38.978Z,7.82
2017-12-05T22:05:04.931Z,7.86
2017-12-05T22:07:31.050Z,7.75
2017-12-05T22:09:56.824Z,7.86
2017-12-05T22:12:22.786Z,7.80
2017-12-05T22:14:48.542Z,7.86
2017-12-05T22:17:14.318Z,7.86
2017-12-05T22:19:40.062Z,7.91
2017-12-05T22:22:05.824Z,7.88
2017-12-05T22:24:31.580Z,7.93
2017-12-05T22:26:57.353Z,7.93
2017-12-05T22:29:23.228Z,7.91
2017-12-05T22:31:48.993Z,7.86
2017-12-05T22:34:14.751Z,7.90
2017-12-05T22:36:40.508Z,7.97
2017-12-05T22:39:06.271Z,8.01
2017-12-05T22:41:32.111Z,7.95
2017-12-05T22:43:57.888Z,7.95
2017-12-05T22:46:23.648Z,8.00
2017-12-05T22:48:49.412Z,8.03
2017-12-05T22:51:15.164Z,8.02
2017-12-05T22:53:40.961Z,7.99
2017-12-05T22:56:06.695Z,8.00
2017-12-05T22:58:32.557Z,7.97
2017-12-05T23:00:58.353Z,8.05
2017-12-05T23:03:24.140Z,8.06
2017-12-05T23:05:49.908Z,8.02
2017-12-05T23:08:15.826Z,8.05
2017-12-05T23:10:41.611Z,8.06
2017-12-05T23:13:07.367Z,8.01
2017-12-05T23:15:33.136Z,8.08
2017-12-05T23:17:58.959Z,8.10
2017-12-05T23:20:24.715Z,8.06
2017-12-05T23:22:50.470Z,8.13
2017-12-05T23:25:16.249Z,8.05
2017-12-05T23:27:42.008Z,8.05
2017-12-05T23:30:07.782Z,8.17
2017-12-05T23:32:33.534Z,8.15
2017-12-05T23:34:59.300Z,8.12
2017-12-05T23:37:25.048Z,8.15
2017-12-05T23:39:50.811Z,8.08
2017-12-05T23:42:16.563Z,8.08
2017-12-05T23:44:42.323Z,8.08
2017-12-05T23:47:08.084Z,8.13
2017-12-05T23:49:33.855Z,8.09
2017-12-05T23:51:59.616Z,8.10
2017-12-05T23:54:25.395Z,8.11
2017-12-05T23:56:51.144Z,8.18
2017-12-05T23:59:16.903Z,8.13
